Aviation Digital Data Service (ADDS)

Output produced by METARs form (1046 UTC 17 June 2019)
found at http://www.aviationweather.gov/metar/data/
 
Forecast for: OPDG (DERA GHAZI , PK)
Text: TAF OPDG 171008Z 1712/1806 18010KT 4000 HZ SCT120 TN28/1801Z
Forecast period: 1200 UTC 17 June 2019 to 0600 UTC 18 June 2019
Forecast type: FROM: standard forecast or significant change
Winds: from the S (180 degrees) at 12 MPH (10 knots; 5.1 m/s)
Visibility: 2.49 miles (4.01 km)
Ceiling: at least 12,000 feet AGL
Clouds: scattered clouds at 12000 feet AGL
Weather: HZ  (haze)
Text: PROB30
Forecast period: 1600 to 1900 UTC 17 June 2019
Forecast type: TEMPORARY: The following changes expected for less than half the time period
Winds: from the N (360 degrees) at 29 MPH (25 knots; 12.9 m/s)
Visibility: 0.50 miles (0.80 km)
Ceiling: at least 12,000 feet AGL
Clouds: few clouds at 4000 feet AGL
scattered clouds at 4000 feet AGL
scattered clouds at 12000 feet AGL
Weather: TS DZ DS  (thunderstorm, moderate drizzle, duststorm)